sensor_id;sensor_type;location;lat;lon;timestamp;P1;durP1;ratioP1;P2;durP2;ratioP2
1000;SDS011;489;47.806;12.858;2023-04-06T00:01:19;5.30;;;4.20;;
1000;SDS011;489;47.806;12.858;2023-04-06T00:03:21;6.03;;;4.33;;
1000;SDS011;489;47.806;12.858;2023-04-06T00:05:23;5.20;;;4.30;;
1000;SDS011;489;47.806;12.858;2023-04-06T00:07:26;5.27;;;4.77;;
1000;SDS011;489;47.806;12.858;2023-04-06T00:09:31;4.83;;;4.30;;
1000;SDS011;489;47.806;12.858;2023-04-06T00:11:33;3.73;;;3.33;;
1000;SDS011;489;47.806;12.858;2023-04-06T00:13:35;5.60;;;4.70;;
1000;SDS011;489;47.806;12.858;2023-04-06T00:15:38;4.70;;;4.20;;
1000;SDS011;489;47.806;12.858;2023-04-06T00:17:40;5.40;;;4.67;;
1000;SDS011;489;47.806;12.858;2023-04-06T00:19:42;4.10;;;3.70;;
1000;SDS011;489;47.806;12.858;2023-04-06T00:21:44;4.70;;;4.10;;
1000;SDS011;489;47.806;12.858;2023-04-06T00:23:46;4.30;;;3.90;;
1000;SDS011;489;47.806;12.858;2023-04-06T00:25:49;4.80;;;4.30;;
1000;SDS011;489;47.806;12.858;2023-04-06T00:27:51;5.10;;;4.10;;
1000;SDS011;489;47.806;12.858;2023-04-06T00:29:53;4.80;;;4.30;;
1000;SDS011;489;47.806;12.858;2023-04-06T00:31:55;4.70;;;4.20;;
1000;SDS011;489;47.806;12.858;2023-04-06T00:33:57;7.60;;;4.87;;
1000;SDS011;489;47.806;12.858;2023-04-06T00:35:59;4.53;;;4.10;;
1000;SDS011;489;47.806;12.858;2023-04-06T00:38:01;5.87;;;4.53;;
1000;SDS011;489;47.806;12.858;2023-04-06T00:40:04;4.90;;;4.23;;
1000;SDS011;489;47.806;12.858;2023-04-06T00:42:10;5.50;;;4.57;;
1000;SDS011;489;47.806;12.858;2023-04-06T00:44:13;4.43;;;4.03;;
1000;SDS011;489;47.806;12.858;2023-04-06T00:46:16;5.27;;;4.23;;
1000;SDS011;489;47.806;12.858;2023-04-06T00:48:18;5.43;;;4.13;;
1000;SDS011;489;47.806;12.858;2023-04-06T00:50:19;5.03;;;4.53;;
1000;SDS011;489;47.806;12.858;2023-04-06T00:52:21;5.10;;;4.60;;
1000;SDS011;489;47.806;12.858;2023-04-06T00:54:24;7.20;;;3.77;;
1000;SDS011;489;47.806;12.858;2023-04-06T00:56:26;6.33;;;4.60;;
1000;SDS011;489;47.806;12.858;2023-04-06T00:58:29;5.20;;;4.70;;
1000;SDS011;489;47.806;12.858;2023-04-06T01:00:38;5.27;;;4.43;;
1000;SDS011;489;47.806;12.858;2023-04-06T01:02:41;5.20;;;4.33;;
1000;SDS011;489;47.806;12.858;2023-04-06T01:04:46;4.57;;;4.03;;
1000;SDS011;489;47.806;12.858;2023-04-06T01:07:02;5.10;;;4.60;;
1000;SDS011;489;47.806;12.858;2023-04-06T01:09:12;5.77;;;4.40;;
1000;SDS011;489;47.806;12.858;2023-04-06T01:11:15;5.10;;;4.43;;
1000;SDS011;489;47.806;12.858;2023-04-06T01:13:17;5.37;;;4.87;;
1000;SDS011;489;47.806;12.858;2023-04-06T01:15:27;5.27;;;4.30;;
1000;SDS011;489;47.806;12.858;2023-04-06T01:17:30;5.70;;;4.50;;
1000;SDS011;489;47.806;12.858;2023-04-06T01:19:40;5.53;;;4.70;;
1000;SDS011;489;47.806;12.858;2023-04-06T01:21:44;5.77;;;4.67;;
1000;SDS011;489;47.806;12.858;2023-04-06T01:24:15;4.80;;;4.40;;
1000;SDS011;489;47.806;12.858;2023-04-06T01:26:32;5.20;;;4.70;;
1000;SDS011;489;47.806;12.858;2023-04-06T01:28:39;7.83;;;4.90;;
1000;SDS011;489;47.806;12.858;2023-04-06T01:30:55;4.80;;;4.27;;
1000;SDS011;489;47.806;12.858;2023-04-06T01:33:19;6.40;;;4.20;;
1000;SDS011;489;47.806;12.858;2023-04-06T01:35:35;5.50;;;4.90;;
1000;SDS011;489;47.806;12.858;2023-04-06T01:37:46;7.37;;;5.10;;
1000;SDS011;489;47.806;12.858;2023-04-06T01:39:58;5.97;;;4.80;;
1000;SDS011;489;47.806;12.858;2023-04-06T01:42:13;6.90;;;6.17;;
1000;SDS011;489;47.806;12.858;2023-04-06T01:44:16;7.23;;;6.17;;
1000;SDS011;489;47.806;12.858;2023-04-06T01:46:22;6.20;;;5.60;;
1000;SDS011;489;47.806;12.858;2023-04-06T01:48:25;7.53;;;6.80;;
1000;SDS011;489;47.806;12.858;2023-04-06T01:50:27;10.73;;;6.47;;
1000;SDS011;489;47.806;12.858;2023-04-06T01:52:29;5.80;;;5.20;;
1000;SDS011;489;47.806;12.858;2023-04-06T01:54:31;6.50;;;5.80;;
1000;SDS011;489;47.806;12.858;2023-04-06T01:56:48;6.50;;;4.80;;
1000;SDS011;489;47.806;12.858;2023-04-06T01:59:03;5.57;;;4.97;;
1000;SDS011;489;47.806;12.858;2023-04-06T02:01:11;6.60;;;4.90;;
1000;SDS011;489;47.806;12.858;2023-04-06T02:03:24;5.47;;;4.97;;
1000;SDS011;489;47.806;12.858;2023-04-06T02:05:36;6.40;;;5.37;;
1000;SDS011;489;47.806;12.858;2023-04-06T02:07:48;6.77;;;6.07;;
1000;SDS011;489;47.806;12.858;2023-04-06T02:09:56;5.80;;;5.27;;
1000;SDS011;489;47.806;12.858;2023-04-06T02:12:08;5.67;;;4.90;;
1000;SDS011;489;47.806;12.858;2023-04-06T02:14:10;8.40;;;5.10;;
1000;SDS011;489;47.806;12.858;2023-04-06T02:16:17;5.33;;;4.20;;
1000;SDS011;489;47.806;12.858;2023-04-06T02:18:20;5.70;;;5.20;;
1000;SDS011;489;47.806;12.858;2023-04-06T02:20:22;5.47;;;4.97;;
1000;SDS011;489;47.806;12.858;2023-04-06T02:22:25;6.27;;;4.60;;
1000;SDS011;489;47.806;12.858;2023-04-06T02:24:27;6.70;;;4.73;;
1000;SDS011;489;47.806;12.858;2023-04-06T02:26:29;5.97;;;5.40;;
1000;SDS011;489;47.806;12.858;2023-04-06T02:28:32;7.53;;;5.23;;
1000;SDS011;489;47.806;12.858;2023-04-06T02:30:35;4.90;;;4.50;;
1000;SDS011;489;47.806;12.858;2023-04-06T02:32:38;6.13;;;4.80;;
1000;SDS011;489;47.806;12.858;2023-04-06T02:34:40;6.40;;;4.77;;
1000;SDS011;489;47.806;12.858;2023-04-06T02:36:42;5.00;;;4.57;;
1000;SDS011;489;47.806;12.858;2023-04-06T02:38:45;5.63;;;4.90;;
1000;SDS011;489;47.806;12.858;2023-04-06T02:40:47;6.33;;;4.60;;
1000;SDS011;489;47.806;12.858;2023-04-06T02:42:55;6.50;;;4.93;;
1000;SDS011;489;47.806;12.858;2023-04-06T02:45:04;5.33;;;4.77;;
1000;SDS011;489;47.806;12.858;2023-04-06T02:47:13;5.83;;;4.87;;
1000;SDS011;489;47.806;12.858;2023-04-06T02:49:20;5.97;;;4.90;;
1000;SDS011;489;47.806;12.858;2023-04-06T02:51:23;5.00;;;4.50;;
1000;SDS011;489;47.806;12.858;2023-04-06T02:53:29;5.90;;;4.70;;
1000;SDS011;489;47.806;12.858;2023-04-06T02:55:32;5.70;;;5.20;;
1000;SDS011;489;47.806;12.858;2023-04-06T02:57:34;6.10;;;4.87;;
1000;SDS011;489;47.806;12.858;2023-04-06T02:59:36;5.20;;;4.70;;
1000;SDS011;489;47.806;12.858;2023-04-06T03:02:01;5.50;;;4.70;;
1000;SDS011;489;47.806;12.858;2023-04-06T03:04:04;7.50;;;5.93;;
1000;SDS011;489;47.806;12.858;2023-04-06T03:06:06;5.10;;;4.60;;
1000;SDS011;489;47.806;12.858;2023-04-06T03:08:08;5.43;;;4.93;;
1000;SDS011;489;47.806;12.858;2023-04-06T03:10:18;4.80;;;4.30;;
1000;SDS011;489;47.806;12.858;2023-04-06T03:12:22;6.23;;;5.00;;
1000;SDS011;489;47.806;12.858;2023-04-06T03:14:44;5.87;;;5.23;;
1000;SDS011;489;47.806;12.858;2023-04-06T03:16:46;9.23;;;5.70;;
1000;SDS011;489;47.806;12.858;2023-04-06T03:18:53;5.80;;;5.30;;
1000;SDS011;489;47.806;12.858;2023-04-06T03:20:56;6.77;;;5.60;;
1000;SDS011;489;47.806;12.858;2023-04-06T03:23:09;5.87;;;5.23;;
1000;SDS011;489;47.806;12.858;2023-04-06T03:25:14;7.47;;;5.40;;
1000;SDS011;489;47.806;12.858;2023-04-06T03:27:19;6.40;;;5.20;;
1000;SDS011;489;47.806;12.858;2023-04-06T03:29:21;6.13;;;5.53;;
1000;SDS011;489;47.806;12.858;2023-04-06T03:31:23;7.37;;;5.70;;
1000;SDS011;489;47.806;12.858;2023-04-06T03:33:34;6.80;;;5.90;;
1000;SDS011;489;47.806;12.858;2023-04-06T03:35:37;6.67;;;5.90;;
1000;SDS011;489;47.806;12.858;2023-04-06T03:37:39;6.70;;;5.40;;
1000;SDS011;489;47.806;12.858;2023-04-06T03:39:41;5.53;;;4.80;;
1000;SDS011;489;47.806;12.858;2023-04-06T03:41:47;7.20;;;5.53;;
1000;SDS011;489;47.806;12.858;2023-04-06T03:44:07;5.63;;;5.13;;
1000;SDS011;489;47.806;12.858;2023-04-06T03:46:10;7.77;;;5.23;;
1000;SDS011;489;47.806;12.858;2023-04-06T03:48:12;6.20;;;5.60;;
1000;SDS011;489;47.806;12.858;2023-04-06T03:50:15;9.17;;;5.47;;
1000;SDS011;489;47.806;12.858;2023-04-06T03:52:19;7.27;;;5.57;;
1000;SDS011;489;47.806;12.858;2023-04-06T03:54:25;5.73;;;5.10;;
1000;SDS011;489;47.806;12.858;2023-04-06T03:56:27;7.70;;;5.27;;
1000;SDS011;489;47.806;12.858;2023-04-06T03:58:29;6.43;;;5.77;;
1000;SDS011;489;47.806;12.858;2023-04-06T04:00:31;7.00;;;6.00;;
1000;SDS011;489;47.806;12.858;2023-04-06T04:02:33;7.40;;;6.37;;
1000;SDS011;489;47.806;12.858;2023-04-06T04:04:35;6.67;;;6.00;;
1000;SDS011;489;47.806;12.858;2023-04-06T04:06:37;6.97;;;6.27;;
1000;SDS011;489;47.806;12.858;2023-04-06T04:08:42;8.50;;;6.37;;
1000;SDS011;489;47.806;12.858;2023-04-06T04:10:45;9.83;;;7.40;;
1000;SDS011;489;47.806;12.858;2023-04-06T04:12:47;7.60;;;5.70;;
1000;SDS011;489;47.806;12.858;2023-04-06T04:14:49;8.10;;;6.83;;
1000;SDS011;489;47.806;12.858;2023-04-06T04:16:51;6.90;;;6.17;;
1000;SDS011;489;47.806;12.858;2023-04-06T04:18:53;8.17;;;6.73;;
1000;SDS011;489;47.806;12.858;2023-04-06T04:20:57;7.57;;;6.63;;
1000;SDS011;489;47.806;12.858;2023-04-06T04:23:00;7.10;;;6.33;;
1000;SDS011;489;47.806;12.858;2023-04-06T04:25:07;7.93;;;6.33;;
1000;SDS011;489;47.806;12.858;2023-04-06T04:27:15;7.30;;;6.60;;
1000;SDS011;489;47.806;12.858;2023-04-06T04:29:17;8.50;;;7.37;;
1000;SDS011;489;47.806;12.858;2023-04-06T04:31:21;7.00;;;6.30;;
1000;SDS011;489;47.806;12.858;2023-04-06T04:33:28;10.57;;;6.37;;
1000;SDS011;489;47.806;12.858;2023-04-06T04:35:32;8.07;;;5.87;;
1000;SDS011;489;47.806;12.858;2023-04-06T04:37:34;9.87;;;6.43;;
1000;SDS011;489;47.806;12.858;2023-04-06T04:39:37;7.80;;;6.43;;
1000;SDS011;489;47.806;12.858;2023-04-06T04:41:42;7.97;;;6.13;;
1000;SDS011;489;47.806;12.858;2023-04-06T04:43:46;7.60;;;6.70;;
1000;SDS011;489;47.806;12.858;2023-04-06T04:45:52;10.10;;;7.80;;
1000;SDS011;489;47.806;12.858;2023-04-06T04:48:07;7.97;;;7.10;;
1000;SDS011;489;47.806;12.858;2023-04-06T04:50:21;8.17;;;6.53;;
1000;SDS011;489;47.806;12.858;2023-04-06T04:52:26;8.73;;;6.53;;
1000;SDS011;489;47.806;12.858;2023-04-06T04:54:45;9.97;;;7.07;;
1000;SDS011;489;47.806;12.858;2023-04-06T04:56:57;9.83;;;6.63;;
1000;SDS011;489;47.806;12.858;2023-04-06T04:59:12;9.57;;;7.53;;
1000;SDS011;489;47.806;12.858;2023-04-06T05:01:20;9.20;;;7.23;;
1000;SDS011;489;47.806;12.858;2023-04-06T05:03:23;10.47;;;6.90;;
1000;SDS011;489;47.806;12.858;2023-04-06T05:05:33;7.53;;;6.77;;
1000;SDS011;489;47.806;12.858;2023-04-06T05:07:36;9.97;;;8.13;;
1000;SDS011;489;47.806;12.858;2023-04-06T05:09:40;10.97;;;7.30;;
1000;SDS011;489;47.806;12.858;2023-04-06T05:11:42;10.47;;;7.83;;
1000;SDS011;489;47.806;12.858;2023-04-06T05:13:45;10.90;;;8.40;;
1000;SDS011;489;47.806;12.858;2023-04-06T05:15:52;10.77;;;7.60;;
1000;SDS011;489;47.806;12.858;2023-04-06T05:18:01;10.33;;;7.23;;
1000;SDS011;489;47.806;12.858;2023-04-06T05:20:07;9.73;;;7.17;;
1000;SDS011;489;47.806;12.858;2023-04-06T05:22:17;8.37;;;7.23;;
1000;SDS011;489;47.806;12.858;2023-04-06T05:24:28;12.47;;;7.53;;
1000;SDS011;489;47.806;12.858;2023-04-06T05:26:31;9.10;;;7.30;;
1000;SDS011;489;47.806;12.858;2023-04-06T05:28:39;8.77;;;6.63;;
1000;SDS011;489;47.806;12.858;2023-04-06T05:30:45;7.93;;;7.13;;
1000;SDS011;489;47.806;12.858;2023-04-06T05:32:48;11.70;;;6.23;;
1000;SDS011;489;47.806;12.858;2023-04-06T05:34:51;10.33;;;7.40;;
1000;SDS011;489;47.806;12.858;2023-04-06T05:36:53;7.60;;;6.07;;
1000;SDS011;489;47.806;12.858;2023-04-06T05:38:59;7.23;;;6.13;;
1000;SDS011;489;47.806;12.858;2023-04-06T05:41:09;9.27;;;6.17;;
1000;SDS011;489;47.806;12.858;2023-04-06T05:43:14;8.37;;;6.13;;
1000;SDS011;489;47.806;12.858;2023-04-06T05:45:20;7.63;;;6.20;;
1000;SDS011;489;47.806;12.858;2023-04-06T05:47:28;6.33;;;5.57;;
1000;SDS011;489;47.806;12.858;2023-04-06T05:49:38;8.67;;;7.03;;
1000;SDS011;489;47.806;12.858;2023-04-06T05:51:45;7.90;;;6.30;;
1000;SDS011;489;47.806;12.858;2023-04-06T05:53:47;8.70;;;6.70;;
1000;SDS011;489;47.806;12.858;2023-04-06T05:55:50;6.50;;;5.60;;
1000;SDS011;489;47.806;12.858;2023-04-06T05:57:54;6.13;;;5.50;;
1000;SDS011;489;47.806;12.858;2023-04-06T05:59:56;5.83;;;5.17;;
1000;SDS011;489;47.806;12.858;2023-04-06T06:02:02;6.70;;;5.73;;
1000;SDS011;489;47.806;12.858;2023-04-06T06:04:08;8.47;;;5.40;;
1000;SDS011;489;47.806;12.858;2023-04-06T06:06:12;7.13;;;6.10;;
1000;SDS011;489;47.806;12.858;2023-04-06T06:08:41;8.90;;;6.03;;
1000;SDS011;489;47.806;12.858;2023-04-06T06:10:49;6.80;;;6.00;;
1000;SDS011;489;47.806;12.858;2023-04-06T06:12:54;5.90;;;5.30;;
1000;SDS011;489;47.806;12.858;2023-04-06T06:14:57;7.50;;;6.13;;
1000;SDS011;489;47.806;12.858;2023-04-06T06:17:01;7.07;;;5.50;;
1000;SDS011;489;47.806;12.858;2023-04-06T06:19:03;8.10;;;6.00;;
1000;SDS011;489;47.806;12.858;2023-04-06T06:21:07;7.50;;;6.80;;
1000;SDS011;489;47.806;12.858;2023-04-06T06:23:09;8.93;;;6.20;;
1000;SDS011;489;47.806;12.858;2023-04-06T06:25:11;8.27;;;7.03;;
1000;SDS011;489;47.806;12.858;2023-04-06T06:27:14;7.20;;;6.20;;
1000;SDS011;489;47.806;12.858;2023-04-06T06:29:15;7.00;;;6.30;;
1000;SDS011;489;47.806;12.858;2023-04-06T06:31:17;7.13;;;6.20;;
1000;SDS011;489;47.806;12.858;2023-04-06T06:33:20;7.40;;;6.73;;
1000;SDS011;489;47.806;12.858;2023-04-06T06:35:41;7.73;;;6.83;;
1000;SDS011;489;47.806;12.858;2023-04-06T06:37:45;8.37;;;7.57;;
1000;SDS011;489;47.806;12.858;2023-04-06T06:39:53;12.17;;;8.80;;
1000;SDS011;489;47.806;12.858;2023-04-06T06:41:55;7.30;;;6.60;;
1000;SDS011;489;47.806;12.858;2023-04-06T06:44:16;7.87;;;7.17;;
1000;SDS011;489;47.806;12.858;2023-04-06T06:46:18;8.97;;;8.17;;
1000;SDS011;489;47.806;12.858;2023-04-06T06:48:21;9.17;;;6.37;;
1000;SDS011;489;47.806;12.858;2023-04-06T06:50:45;10.60;;;7.30;;
1000;SDS011;489;47.806;12.858;2023-04-06T06:52:51;8.73;;;6.47;;
1000;SDS011;489;47.806;12.858;2023-04-06T06:54:53;9.30;;;7.10;;
1000;SDS011;489;47.806;12.858;2023-04-06T06:56:56;10.03;;;7.60;;
1000;SDS011;489;47.806;12.858;2023-04-06T06:58:58;7.90;;;6.93;;
1000;SDS011;489;47.806;12.858;2023-04-06T07:01:00;7.90;;;7.10;;
1000;SDS011;489;47.806;12.858;2023-04-06T07:03:23;8.50;;;7.30;;
1000;SDS011;489;47.806;12.858;2023-04-06T07:05:26;9.43;;;7.20;;
1000;SDS011;489;47.806;12.858;2023-04-06T07:07:31;8.13;;;6.70;;
1000;SDS011;489;47.806;12.858;2023-04-06T07:09:34;6.73;;;6.03;;
1000;SDS011;489;47.806;12.858;2023-04-06T07:11:36;6.53;;;5.97;;
1000;SDS011;489;47.806;12.858;2023-04-06T07:13:39;8.47;;;6.30;;
1000;SDS011;489;47.806;12.858;2023-04-06T07:15:41;7.63;;;6.93;;
1000;SDS011;489;47.806;12.858;2023-04-06T07:17:43;7.57;;;5.97;;
1000;SDS011;489;47.806;12.858;2023-04-06T07:19:46;7.00;;;6.13;;
1000;SDS011;489;47.806;12.858;2023-04-06T07:21:48;9.93;;;6.97;;
1000;SDS011;489;47.806;12.858;2023-04-06T07:23:50;6.63;;;6.03;;
1000;SDS011;489;47.806;12.858;2023-04-06T07:25:55;7.17;;;5.90;;
1000;SDS011;489;47.806;12.858;2023-04-06T07:27:57;6.57;;;6.03;;
1000;SDS011;489;47.806;12.858;2023-04-06T07:29:59;7.10;;;6.13;;
1000;SDS011;489;47.806;12.858;2023-04-06T07:32:02;6.90;;;6.30;;
1000;SDS011;489;47.806;12.858;2023-04-06T07:34:05;6.37;;;5.87;;
1000;SDS011;489;47.806;12.858;2023-04-06T07:36:08;6.90;;;6.10;;
1000;SDS011;489;47.806;12.858;2023-04-06T07:38:10;6.70;;;6.03;;
1000;SDS011;489;47.806;12.858;2023-04-06T07:40:13;6.80;;;6.10;;
1000;SDS011;489;47.806;12.858;2023-04-06T07:42:17;7.30;;;6.37;;
1000;SDS011;489;47.806;12.858;2023-04-06T07:44:19;7.10;;;6.47;;
1000;SDS011;489;47.806;12.858;2023-04-06T07:46:22;8.83;;;6.43;;
1000;SDS011;489;47.806;12.858;2023-04-06T07:48:24;9.03;;;6.23;;
1000;SDS011;489;47.806;12.858;2023-04-06T07:50:26;7.97;;;6.50;;
1000;SDS011;489;47.806;12.858;2023-04-06T07:52:29;7.30;;;6.60;;
1000;SDS011;489;47.806;12.858;2023-04-06T07:54:32;9.90;;;7.30;;
1000;SDS011;489;47.806;12.858;2023-04-06T07:56:34;7.63;;;6.83;;
1000;SDS011;489;47.806;12.858;2023-04-06T07:58:38;7.87;;;7.00;;
1000;SDS011;489;47.806;12.858;2023-04-06T08:00:39;8.10;;;6.10;;
1000;SDS011;489;47.806;12.858;2023-04-06T08:02:41;9.60;;;6.60;;
1000;SDS011;489;47.806;12.858;2023-04-06T08:04:44;7.20;;;6.50;;
1000;SDS011;489;47.806;12.858;2023-04-06T08:06:46;8.20;;;7.13;;
1000;SDS011;489;47.806;12.858;2023-04-06T08:08:48;7.03;;;6.33;;
1000;SDS011;489;47.806;12.858;2023-04-06T08:10:50;7.10;;;6.23;;
1000;SDS011;489;47.806;12.858;2023-04-06T08:12:52;8.90;;;7.50;;
1000;SDS011;489;47.806;12.858;2023-04-06T08:14:55;8.70;;;7.00;;
1000;SDS011;489;47.806;12.858;2023-04-06T08:16:58;8.00;;;6.63;;
1000;SDS011;489;47.806;12.858;2023-04-06T08:19:00;8.40;;;6.47;;
1000;SDS011;489;47.806;12.858;2023-04-06T08:21:02;7.97;;;6.37;;
1000;SDS011;489;47.806;12.858;2023-04-06T08:23:04;9.13;;;7.40;;
1000;SDS011;489;47.806;12.858;2023-04-06T08:25:07;8.40;;;6.53;;
1000;SDS011;489;47.806;12.858;2023-04-06T08:27:09;6.90;;;6.20;;
1000;SDS011;489;47.806;12.858;2023-04-06T08:29:11;6.90;;;6.13;;
1000;SDS011;489;47.806;12.858;2023-04-06T08:31:14;7.90;;;6.67;;
1000;SDS011;489;47.806;12.858;2023-04-06T08:33:16;8.00;;;6.50;;
1000;SDS011;489;47.806;12.858;2023-04-06T08:35:19;7.87;;;6.10;;
1000;SDS011;489;47.806;12.858;2023-04-06T08:37:21;8.10;;;6.73;;
1000;SDS011;489;47.806;12.858;2023-04-06T08:39:23;6.70;;;6.00;;
1000;SDS011;489;47.806;12.858;2023-04-06T08:41:26;6.90;;;6.20;;
1000;SDS011;489;47.806;12.858;2023-04-06T08:43:29;8.63;;;6.70;;
1000;SDS011;489;47.806;12.858;2023-04-06T08:45:31;6.80;;;6.10;;
1000;SDS011;489;47.806;12.858;2023-04-06T08:47:36;9.77;;;6.40;;
1000;SDS011;489;47.806;12.858;2023-04-06T08:49:38;6.57;;;5.90;;
1000;SDS011;489;47.806;12.858;2023-04-06T08:51:40;9.57;;;7.17;;
1000;SDS011;489;47.806;12.858;2023-04-06T08:53:44;7.33;;;6.63;;
1000;SDS011;489;47.806;12.858;2023-04-06T08:55:46;7.53;;;6.70;;
1000;SDS011;489;47.806;12.858;2023-04-06T08:57:48;7.53;;;6.67;;
1000;SDS011;489;47.806;12.858;2023-04-06T08:59:53;7.33;;;6.50;;
1000;SDS011;489;47.806;12.858;2023-04-06T09:01:56;6.23;;;5.60;;
1000;SDS011;489;47.806;12.858;2023-04-06T09:04:22;8.80;;;7.00;;
1000;SDS011;489;47.806;12.858;2023-04-06T09:06:24;7.47;;;6.70;;
1000;SDS011;489;47.806;12.858;2023-04-06T09:08:27;7.27;;;6.57;;
1000;SDS011;489;47.806;12.858;2023-04-06T09:10:29;6.40;;;5.90;;
1000;SDS011;489;47.806;12.858;2023-04-06T09:12:32;6.67;;;6.07;;
1000;SDS011;489;47.806;12.858;2023-04-06T09:14:35;7.33;;;6.67;;
1000;SDS011;489;47.806;12.858;2023-04-06T09:16:38;6.10;;;5.50;;
1000;SDS011;489;47.806;12.858;2023-04-06T09:18:42;7.63;;;6.90;;
1000;SDS011;489;47.806;12.858;2023-04-06T09:20:46;6.77;;;6.07;;
1000;SDS011;489;47.806;12.858;2023-04-06T09:22:58;6.97;;;6.33;;
1000;SDS011;489;47.806;12.858;2023-04-06T09:25:00;6.90;;;6.30;;
1000;SDS011;489;47.806;12.858;2023-04-06T09:27:02;6.80;;;6.10;;
1000;SDS011;489;47.806;12.858;2023-04-06T09:29:04;5.70;;;5.20;;
1000;SDS011;489;47.806;12.858;2023-04-06T09:31:06;8.37;;;6.93;;
1000;SDS011;489;47.806;12.858;2023-04-06T09:33:10;6.30;;;5.70;;
1000;SDS011;489;47.806;12.858;2023-04-06T09:35:12;6.77;;;5.67;;
1000;SDS011;489;47.806;12.858;2023-04-06T09:37:16;5.73;;;5.13;;
1000;SDS011;489;47.806;12.858;2023-04-06T09:39:20;6.87;;;5.97;;
1000;SDS011;489;47.806;12.858;2023-04-06T09:41:23;7.13;;;6.43;;
1000;SDS011;489;47.806;12.858;2023-04-06T09:43:26;7.67;;;6.57;;
1000;SDS011;489;47.806;12.858;2023-04-06T09:45:28;7.30;;;6.60;;
1000;SDS011;489;47.806;12.858;2023-04-06T09:47:31;6.73;;;6.07;;
1000;SDS011;489;47.806;12.858;2023-04-06T09:49:34;7.00;;;6.30;;
1000;SDS011;489;47.806;12.858;2023-04-06T09:51:36;7.10;;;6.40;;
1000;SDS011;489;47.806;12.858;2023-04-06T09:53:42;6.00;;;5.23;;
1000;SDS011;489;47.806;12.858;2023-04-06T09:55:46;7.90;;;5.70;;
1000;SDS011;489;47.806;12.858;2023-04-06T09:57:50;7.20;;;6.33;;
1000;SDS011;489;47.806;12.858;2023-04-06T09:59:57;6.87;;;6.23;;
1000;SDS011;489;47.806;12.858;2023-04-06T10:02:08;8.37;;;6.50;;
1000;SDS011;489;47.806;12.858;2023-04-06T10:04:18;7.00;;;6.30;;
1000;SDS011;489;47.806;12.858;2023-04-06T10:06:26;7.50;;;6.70;;
1000;SDS011;489;47.806;12.858;2023-04-06T10:08:30;7.23;;;6.53;;
1000;SDS011;489;47.806;12.858;2023-04-06T10:10:36;8.03;;;6.83;;
1000;SDS011;489;47.806;12.858;2023-04-06T10:12:38;9.17;;;6.63;;
1000;SDS011;489;47.806;12.858;2023-04-06T10:14:41;7.33;;;6.60;;
1000;SDS011;489;47.806;12.858;2023-04-06T10:16:44;7.60;;;6.80;;
1000;SDS011;489;47.806;12.858;2023-04-06T10:18:49;6.83;;;6.13;;
1000;SDS011;489;47.806;12.858;2023-04-06T10:20:53;8.00;;;7.20;;
1000;SDS011;489;47.806;12.858;2023-04-06T10:22:59;5.90;;;5.40;;
1000;SDS011;489;47.806;12.858;2023-04-06T10:25:03;7.70;;;6.90;;
1000;SDS011;489;47.806;12.858;2023-04-06T10:27:07;6.63;;;6.00;;
1000;SDS011;489;47.806;12.858;2023-04-06T10:29:11;8.60;;;6.93;;
1000;SDS011;489;47.806;12.858;2023-04-06T10:31:13;8.00;;;7.30;;
1000;SDS011;489;47.806;12.858;2023-04-06T10:33:16;7.00;;;6.30;;
1000;SDS011;489;47.806;12.858;2023-04-06T10:35:19;7.60;;;6.90;;
1000;SDS011;489;47.806;12.858;2023-04-06T10:37:21;7.57;;;6.87;;
1000;SDS011;489;47.806;12.858;2023-04-06T10:39:24;7.63;;;6.93;;
1000;SDS011;489;47.806;12.858;2023-04-06T10:41:31;8.70;;;6.90;;
1000;SDS011;489;47.806;12.858;2023-04-06T10:43:36;7.90;;;6.57;;
1000;SDS011;489;47.806;12.858;2023-04-06T10:45:40;6.93;;;6.30;;
1000;SDS011;489;47.806;12.858;2023-04-06T10:47:43;7.43;;;6.57;;
1000;SDS011;489;47.806;12.858;2023-04-06T10:49:45;6.27;;;5.67;;
1000;SDS011;489;47.806;12.858;2023-04-06T10:51:51;7.07;;;6.37;;
1000;SDS011;489;47.806;12.858;2023-04-06T10:53:55;7.50;;;6.73;;
1000;SDS011;489;47.806;12.858;2023-04-06T10:55:57;8.70;;;6.60;;
1000;SDS011;489;47.806;12.858;2023-04-06T10:57:59;7.67;;;6.73;;
1000;SDS011;489;47.806;12.858;2023-04-06T11:00:03;8.03;;;6.77;;
1000;SDS011;489;47.806;12.858;2023-04-06T11:02:06;7.50;;;6.73;;
1000;SDS011;489;47.806;12.858;2023-04-06T11:04:08;7.87;;;7.07;;
1000;SDS011;489;47.806;12.858;2023-04-06T11:06:20;7.47;;;6.77;;
1000;SDS011;489;47.806;12.858;2023-04-06T11:08:24;8.40;;;7.13;;
1000;SDS011;489;47.806;12.858;2023-04-06T11:10:27;8.03;;;7.10;;
1000;SDS011;489;47.806;12.858;2023-04-06T11:12:30;8.13;;;7.10;;
1000;SDS011;489;47.806;12.858;2023-04-06T11:14:32;7.37;;;6.67;;
1000;SDS011;489;47.806;12.858;2023-04-06T11:16:36;12.83;;;7.33;;
1000;SDS011;489;47.806;12.858;2023-04-06T11:18:45;8.30;;;7.50;;
1000;SDS011;489;47.806;12.858;2023-04-06T11:20:48;8.17;;;7.47;;
1000;SDS011;489;47.806;12.858;2023-04-06T11:22:50;8.13;;;7.13;;
1000;SDS011;489;47.806;12.858;2023-04-06T11:25:03;9.30;;;7.00;;
1000;SDS011;489;47.806;12.858;2023-04-06T11:27:06;8.03;;;6.70;;
1000;SDS011;489;47.806;12.858;2023-04-06T11:29:09;10.10;;;6.13;;
1000;SDS011;489;47.806;12.858;2023-04-06T11:31:11;7.97;;;6.73;;
1000;SDS011;489;47.806;12.858;2023-04-06T11:33:21;8.57;;;6.67;;
1000;SDS011;489;47.806;12.858;2023-04-06T11:35:23;8.63;;;7.10;;
1000;SDS011;489;47.806;12.858;2023-04-06T11:37:26;9.17;;;8.17;;
1000;SDS011;489;47.806;12.858;2023-04-06T11:39:28;9.30;;;8.40;;
1000;SDS011;489;47.806;12.858;2023-04-06T11:41:32;7.47;;;6.77;;
1000;SDS011;489;47.806;12.858;2023-04-06T11:43:34;8.10;;;7.30;;
1000;SDS011;489;47.806;12.858;2023-04-06T11:45:39;9.07;;;7.50;;
1000;SDS011;489;47.806;12.858;2023-04-06T11:47:41;7.70;;;7.00;;
1000;SDS011;489;47.806;12.858;2023-04-06T11:49:44;7.13;;;6.43;;
1000;SDS011;489;47.806;12.858;2023-04-06T11:51:47;7.80;;;6.60;;
1000;SDS011;489;47.806;12.858;2023-04-06T11:53:49;7.50;;;6.20;;
1000;SDS011;489;47.806;12.858;2023-04-06T11:55:51;8.70;;;6.83;;
1000;SDS011;489;47.806;12.858;2023-04-06T11:57:53;7.27;;;6.30;;
1000;SDS011;489;47.806;12.858;2023-04-06T11:59:56;6.57;;;5.83;;
1000;SDS011;489;47.806;12.858;2023-04-06T12:02:00;7.17;;;6.43;;
1000;SDS011;489;47.806;12.858;2023-04-06T12:04:02;6.10;;;5.53;;
1000;SDS011;489;47.806;12.858;2023-04-06T12:06:06;6.60;;;6.00;;
1000;SDS011;489;47.806;12.858;2023-04-06T12:08:30;6.53;;;5.93;;
1000;SDS011;489;47.806;12.858;2023-04-06T12:10:32;6.17;;;5.43;;
1000;SDS011;489;47.806;12.858;2023-04-06T12:12:34;8.00;;;6.40;;
1000;SDS011;489;47.806;12.858;2023-04-06T12:17:13;8.63;;;7.20;;
1000;SDS011;489;47.806;12.858;2023-04-06T12:19:16;8.80;;;7.00;;
1000;SDS011;489;47.806;12.858;2023-04-06T12:21:19;6.90;;;6.30;;
1000;SDS011;489;47.806;12.858;2023-04-06T12:23:21;7.57;;;6.77;;
1000;SDS011;489;47.806;12.858;2023-04-06T12:25:24;10.03;;;7.27;;
1000;SDS011;489;47.806;12.858;2023-04-06T12:27:26;6.97;;;6.10;;
1000;SDS011;489;47.806;12.858;2023-04-06T12:29:28;8.97;;;7.97;;
1000;SDS011;489;47.806;12.858;2023-04-06T12:31:32;14.80;;;8.07;;
1000;SDS011;489;47.806;12.858;2023-04-06T12:33:34;8.00;;;7.20;;
1000;SDS011;489;47.806;12.858;2023-04-06T12:35:36;7.83;;;7.03;;
1000;SDS011;489;47.806;12.858;2023-04-06T12:37:40;9.60;;;7.47;;
1000;SDS011;489;47.806;12.858;2023-04-06T12:39:42;7.70;;;6.90;;
1000;SDS011;489;47.806;12.858;2023-04-06T12:41:45;8.30;;;7.37;;
1000;SDS011;489;47.806;12.858;2023-04-06T12:43:48;7.90;;;7.20;;
1000;SDS011;489;47.806;12.858;2023-04-06T12:45:50;8.10;;;7.30;;
1000;SDS011;489;47.806;12.858;2023-04-06T12:47:52;7.70;;;6.90;;
1000;SDS011;489;47.806;12.858;2023-04-06T12:49:54;7.60;;;6.80;;
1000;SDS011;489;47.806;12.858;2023-04-06T12:51:56;14.13;;;12.83;;
1000;SDS011;489;47.806;12.858;2023-04-06T12:54:00;7.57;;;6.60;;
1000;SDS011;489;47.806;12.858;2023-04-06T12:56:05;7.20;;;6.50;;
1000;SDS011;489;47.806;12.858;2023-04-06T12:58:13;7.13;;;6.43;;